Flight Track Log - Related Links

Times and Time Zones

All times are in EDT time to prevent confusion due to time zone crossing. See the N935SS flight status page for this flight to view local times or setup timezone preferences in your user account.

Time Position Orientation Groundspeed Altitude Reporting Facility
EDT Latitude Longitude Course Direction KTS MPH feet Rate Location/Type
Fri 11:37:32 AM 39.9167 -104.7167 339° North 210 242 6,400  Level Denver TRACON
Fri 11:38:32 AM 39.9833 -104.7500 339° North 279 321 8,100 1,758 Climbing Denver TRACON
Fri 11:39:11 AM 40.0286 -104.7636 347° North 289 333 9,300 1,901 Climbing Denver Center
Fri 11:40:13 AM 40.0864 -104.8414 314° West 333 383 11,300 1,984 Climbing Denver Center
Fri 11:41:15 AM 40.0678 -104.9656 259° West 329 379 13,400 1,984 Climbing Denver Center
Fri 11:42:17 AM 40.0331 -105.0800 248° West 338 389 15,400 2,032 Climbing Denver Center
Fri 11:43:19 AM 39.9914 -105.2003 246° West 337 388 17,600 1,984 Climbing Denver Center
Fri 11:44:21 AM 39.9322 -105.2958 231° Southwest 337 388 19,500 1,935 Climbing Denver Center
Fri 11:45:23 AM 39.8664 -105.4006 231° Southwest 347 399 21,600 1,694 Climbing Denver Center
Fri 11:46:25 AM 39.8061 -105.4969 231° Southwest 344 396 23,000 1,113 Climbing Denver Center
Fri 11:47:27 AM 39.7339 -105.6108 231° Southwest 380 437 23,900 1,065 Climbing Denver Center
Fri 11:48:29 AM 39.6928 -105.7194 244° Southwest 383 441 25,200 1,016 Climbing Denver Center
Fri 11:49:31 AM 39.6783 -105.8547 262° West 369 425 26,000 484 Climbing Denver Center
Fri 11:50:33 AM 39.6578 -106.0336 262° West 418 481 26,200 532 Climbing Denver Center
Fri 11:51:35 AM 39.6428 -106.1708 262° West 427 491 27,100 919 Climbing Denver Center
Fri 11:52:37 AM 39.6239 -106.3200 261° West 421 484 28,100 1,065 Climbing Denver Center
Fri 11:53:39 AM 39.5714 -106.4828 247° West 409 471 29,300 1,016 Climbing Denver Center
Fri 11:54:41 AM 39.5319 -106.6056 247° West 406 467 30,200 1,016 Climbing Denver Center
Fri 11:55:43 AM 39.4836 -106.7553 247° West 404 465 31,400 1,016 Climbing Denver Center
Fri 11:56:45 AM 39.4397 -106.8839 246° West 410 472 32,300 968 Climbing Denver Center
Fri 11:57:47 AM 39.3950 -107.0350 249° West 405 466 33,400 823 Climbing Denver Center
Fri 11:58:49 AM 39.3558 -107.1664 249° West 407 468 34,000 677 Climbing Denver Center
Fri 11:59:51 AM 39.3089 -107.3233 249° West 415 478 34,800 720 Climbing Denver Center
Fri 12:00:54 PM 39.2689 -107.4567 249° West 416 479 35,500 720 Climbing Denver Center
Fri 12:01:56 PM 39.2217 -107.6139 249° West 419 482 36,300 677 Climbing Denver Center
Fri 12:02:58 PM 39.1811 -107.7475 249° West 417 480 36,900 677 Climbing Denver Center
Fri 12:04:00 PM 39.1336 -107.9047 249° West 420 483 37,700 532 Climbing Denver Center
Fri 12:05:02 PM 39.0933 -108.0381 249° West 418 481 38,000 145 Climbing Denver Center
Fri 12:06:04 PM 39.0428 -108.2011 248° West 435 501 38,000  Level Denver Center
Fri 12:07:06 PM 38.9972 -108.3467 248° West 468 539 38,000  Level Denver Center
Fri 12:08:07 PM 38.9631 -108.4639 249° West 448 516 38,000  Level Denver Center
Fri 12:09:10 PM 38.9042 -108.6533 248° West 440 506 38,000  Level Denver Center
Fri 12:10:12 PM 38.8603 -108.7919 248° West 437 503 38,000  Level Denver Center
Fri 12:11:14 PM 38.8097 -108.9547 248° West 437 503 38,000  Level Denver Center
Fri 12:12:16 PM 38.7667 -109.0931 248° West 434 499 38,000  Level Denver Center
Fri 12:13:30 PM 38.7156 -109.2542 248° West 437 503 38,000  Level Denver Center
Fri 12:14:33 PM 38.6631 -109.4131 247° West 433 498 38,000  Level Denver Center
Fri 12:15:35 PM 38.6139 -109.5739 249° West 433 498 38,000  Level Denver Center
Fri 12:16:37 PM 38.5686 -109.7069 247° West 427 491 38,000  Level Denver Center
Fri 12:17:39 PM 38.5186 -109.8683 248° West 436 502 38,000  Level Denver Center
Fri 12:18:41 PM 38.4744 -110.0000 247° West 422 486 38,000  Level Denver Center
Fri 12:19:43 PM 38.4222 -110.1589 247° West 433 498 38,000 -49 Level Denver Center
Fri 12:20:44 PM 38.3792 -110.2672 243° Southwest 431 496 37,900 -435 Descending Denver Center
Fri 12:21:47 PM 38.3025 -110.4392 240° Southwest 438 504 37,100 -672 Descending Denver Center
Fri 12:22:49 PM 38.2439 -110.5683 240° Southwest 441 507 36,500 -726 Descending Denver Center
Fri 12:23:51 PM 38.1744 -110.7219 240° Southwest 448 516 35,600 -896 Descending Denver Center
Fri 12:25:03 PM 38.1028 -110.8756 239° Southwest 451 519 34,500 -985 Descending Salt Lake Center
Fri 12:26:05 PM 38.0358 -111.0236 240° Southwest 454 522 33,400 -1,016 Descending Salt Lake Center
Fri 12:27:07 PM 37.9722 -111.1644 240° Southwest 459 528 32,400 -677 Descending Salt Lake Center
Fri 12:28:09 PM 37.9081 -111.3028 240° Southwest 457 526 32,000 -194 Descending Salt Lake Center
Fri 12:29:11 PM 37.8464 -111.4381 240° Southwest 447 514 32,000  Level Salt Lake Center
Fri 12:30:13 PM 37.7864 -111.5719 240° Southwest 441 507 32,000  Level Salt Lake Center
Fri 12:31:15 PM 37.7106 -111.7292 239° Southwest 438 504 32,000  Level Salt Lake Center
Fri 12:32:17 PM 37.6497 -111.8603 240° Southwest 434 499 32,000  Level Salt Lake Center
Fri 12:33:19 PM 37.5897 -111.9922 240° Southwest 433 498 32,000  Level Salt Lake Center
Fri 12:34:21 PM 37.5275 -112.1228 239° Southwest 434 499 32,000  Level Salt Lake Center
Fri 12:35:23 PM 37.4658 -112.2531 239° Southwest 433 498 32,000  Level Salt Lake Center
Fri 12:36:25 PM 37.4039 -112.3833 239° Southwest 432 497 32,000 -387 Level Salt Lake Center
Fri 12:37:27 PM 37.3406 -112.5153 239° Southwest 435 501 31,200 -1,113 Descending Salt Lake Center
Fri 12:38:29 PM 37.2625 -112.6814 239° Southwest 451 519 29,700 -1,296 Descending Salt Lake Center
Fri 12:39:32 PM 37.1953 -112.8194 239° Southwest 458 527 28,500 -1,200 Descending Salt Lake Center
Fri 12:40:34 PM 37.1281 -112.9572 239° Southwest 460 529 27,200 -1,258 Descending Salt Lake Center
Fri 12:41:36 PM 37.0625 -113.0936 239° Southwest 457 526 25,900 -1,258 Descending Salt Lake Center
Fri 12:42:38 PM 36.9969 -113.2297 239° Southwest 456 525 24,600 -1,258 Descending Salt Lake Center
Fri 12:43:40 PM 36.9311 -113.3614 238° Southwest 449 517 23,300 -774 Descending Salt Lake Center
Fri 12:44:42 PM 36.8678 -113.4911 239° Southwest 441 507 23,000 -175 Descending Salt Lake Center
Fri 12:45:23 PM 36.8181 -113.5936 239° Southwest 435 501 23,000  Level Los Angeles Center
Fri 12:46:25 PM 36.7558 -113.7189 238° Southwest 428 493 23,000 -823 Level Los Angeles Center
Fri 12:47:27 PM 36.6925 -113.8450 238° Southwest 428 493 21,300 -1,839 Descending Los Angeles Center
Fri 12:48:29 PM 36.6322 -113.9694 239° Southwest 421 484 19,200 -2,112 Descending Los Angeles Center
Fri 12:49:32 PM 36.5614 -114.1078 238° Southwest 398 458 16,900 -2,018 Descending Los Angeles Center
Fri 12:50:19 PM 36.5206 -114.2036 242° Southwest 399 459 15,500 -1,733 Descending Los Angeles Center
Fri 12:51:02 PM 36.4847 -114.2856 241° Southwest 389 448 14,300 -1,558 Descending Los Angeles Center
Fri 12:51:36 PM 36.4600 -114.3353 238° Southwest 381 438 13,500 -1,701 Descending Los Angeles Center
Fri 12:52:09 PM 36.4281 -114.4094 242° Southwest 365 420 12,400 -957 Descending Los Angeles Center
Fri 12:53:10 PM 36.3703 -114.4908 229° Southwest 308 354 12,000 -452 Descending Los Angeles Center
Fri 12:53:42 PM 36.3564 -114.5139 233° Southwest 293 337 11,700 -978 Descending Los Angeles Center
Fri 12:54:42 PM 36.3069 -114.6192 240° Southwest 290 334 10,500 -1,133 Descending Los Angeles Center
Fri 12:55:12 PM 36.2856 -114.6639 239° Southwest 305 351 10,000 -968 Descending Los Angeles Center
Fri 12:55:44 PM 36.2608 -114.7097 236° Southwest 303 349 9,500 -985 Descending Los Angeles Center
Fri 12:56:19 PM 36.2306 -114.7678 237° Southwest 311 358 8,900 -1,000 Descending Los Angeles Center
Fri 12:57:20 PM 36.1853 -114.8575 238° Southwest 307 353 7,900 -887 Descending Los Angeles Center
Fri 12:58:14 PM 36.1442 -114.9353 237° Southwest 299 344 7,200 -706 Descending Los Angeles Center
Fri 12:59:02 PM 36.1403 -114.9764 263° West 291 335 6,700 -750 Descending Los Angeles Center
Fri 01:00:06 PM 36.1689 -115.0511 295° West 211 243 5,800 -1,440 Descending Los Angeles Center
Fri 01:01:07 PM 36.1586 -115.1181 259° West 172 198 3,700 -1,610 Descending Los Angeles Center
Fri 01:02:09 PM 36.1208 -115.1433 208° Southwest 161 185 2,500 -677 Descending Los Angeles Center
Fri 01:03:11 PM 36.0861 -115.1636 205° Southwest 157 181 2,300 -194 Descending Los Angeles Center
Fri 01:05:00 PM 36.0801 -115.1523 219° Southwest  Level Estimated

Login

Don't have an account? Register now (free) for customized features, flight alerts, and more!